FDX1363 KFAT-KOAK
Flight info
| Callsign | FDX1363 |
|---|---|
| Flight time | 0h 27m |
| Altitude | 26000 |
| Route | SUNOL |
| Aircraft | B77L/H-SDE1E2E3FGHIJ2J3J4J5M1RWXY/LB1D1 |
Departure
| Time | 2026-04-26 21:08 |
|---|---|
| Airport | Fresno Yosemite International Airport (KFAT) |
Arrival
| Time | 2026-04-26 21:36 |
|---|---|
| Airport | San Francisco Bay Oakland International Airport (KOAK) |
| Time | Latitude | Longitude | Altitude | Speed | Heading |
|---|---|---|---|---|---|
| 2026-04-26 20:59 | 36.77992 | -119.71504 | 354 ft | 0 kts | 306° |
| 2026-04-26 21:03 | 36.77986 | -119.71495 | 355 ft | 4 kts | 306° |
| 2026-04-26 21:04 | 36.77970 | -119.71467 | 356 ft | 4 kts | 305° |
| 2026-04-26 21:04 | 36.77957 | -119.71439 | 356 ft | 4 kts | 283° |
| 2026-04-26 21:04 | 36.77955 | -119.71424 | 356 ft | 1 kts | 236° |
| 2026-04-26 21:06 | 36.77928 | -119.71447 | 356 ft | 15 kts | 212° |
| 2026-04-26 21:06 | 36.77840 | -119.71522 | 351 ft | 15 kts | 214° |
| 2026-04-26 21:06 | 36.77748 | -119.71493 | 352 ft | 15 kts | 129° |
| 2026-04-26 21:06 | 36.77686 | -119.71384 | 355 ft | 16 kts | 124° |
| 2026-04-26 21:07 | 36.77616 | -119.71295 | 354 ft | 11 kts | 171° |
| 2026-04-26 21:07 | 36.77549 | -119.71351 | 349 ft | 13 kts | 224° |
| 2026-04-26 21:07 | 36.77521 | -119.71470 | 349 ft | 28 kts | 292° |
| 2026-04-26 21:07 | 36.77822 | -119.72013 | 335 ft | 126 kts | 307° |
| 2026-04-26 21:08 | 36.78489 | -119.73170 | 594 ft | 189 kts | 305° |
| 2026-04-26 21:08 | 36.79277 | -119.74580 | 1453 ft | 203 kts | 299° |
| 2026-04-26 21:08 | 36.79904 | -119.76208 | 2262 ft | 217 kts | 296° |
| 2026-04-26 21:08 | 36.80603 | -119.77990 | 2870 ft | 239 kts | 295° |
| 2026-04-26 21:09 | 36.81333 | -119.79907 | 3798 ft | 248 kts | 295° |
| 2026-04-26 21:09 | 36.82086 | -119.81860 | 4835 ft | 252 kts | 295° |
| 2026-04-26 21:09 | 36.82859 | -119.83836 | 5876 ft | 255 kts | 295° |
| 2026-04-26 21:09 | 36.83646 | -119.85830 | 6884 ft | 258 kts | 295° |
| 2026-04-26 21:10 | 36.84449 | -119.87848 | 7866 ft | 261 kts | 296° |
| 2026-04-26 21:10 | 36.85266 | -119.89889 | 8835 ft | 265 kts | 296° |
| 2026-04-26 21:10 | 36.86107 | -119.91983 | 9719 ft | 274 kts | 296° |
| 2026-04-26 21:10 | 36.86977 | -119.94145 | 10544 ft | 285 kts | 296° |
| 2026-04-26 21:11 | 36.87909 | -119.96458 | 10877 ft | 313 kts | 296° |
| 2026-04-26 21:11 | 36.88937 | -119.99009 | 11147 ft | 343 kts | 296° |
| 2026-04-26 21:11 | 36.90031 | -120.01719 | 11921 ft | 354 kts | 296° |
| 2026-04-26 21:11 | 36.91148 | -120.04480 | 12952 ft | 358 kts | 296° |
| 2026-04-26 21:12 | 36.92265 | -120.07243 | 14194 ft | 353 kts | 295° |
| 2026-04-26 21:12 | 36.93367 | -120.09968 | 15289 ft | 351 kts | 295° |
| 2026-04-26 21:12 | 36.94466 | -120.12689 | 15921 ft | 351 kts | 295° |
| 2026-04-26 21:12 | 36.95590 | -120.15478 | 16017 ft | 371 kts | 295° |
| 2026-04-26 21:13 | 36.96766 | -120.18400 | 16020 ft | 379 kts | 295° |
| 2026-04-26 21:13 | 36.97955 | -120.21355 | 16020 ft | 381 kts | 295° |
| 2026-04-26 21:13 | 36.99147 | -120.24316 | 16013 ft | 380 kts | 295° |
| 2026-04-26 21:13 | 37.00334 | -120.27267 | 16008 ft | 380 kts | 295° |
| 2026-04-26 21:14 | 37.01520 | -120.30221 | 15999 ft | 379 kts | 295° |
| 2026-04-26 21:14 | 37.02702 | -120.33167 | 16006 ft | 379 kts | 295° |
| 2026-04-26 21:14 | 37.03883 | -120.36114 | 15996 ft | 378 kts | 295° |
| 2026-04-26 21:14 | 37.05061 | -120.39054 | 15997 ft | 378 kts | 295° |
| 2026-04-26 21:15 | 37.06222 | -120.41957 | 15997 ft | 378 kts | 295° |
| 2026-04-26 21:15 | 37.07397 | -120.44896 | 15999 ft | 378 kts | 295° |
| 2026-04-26 21:15 | 37.08571 | -120.47838 | 15997 ft | 378 kts | 295° |
| 2026-04-26 21:15 | 37.09745 | -120.50780 | 15995 ft | 378 kts | 295° |
| 2026-04-26 21:16 | 37.10921 | -120.53731 | 15994 ft | 379 kts | 295° |
| 2026-04-26 21:16 | 37.12096 | -120.56685 | 15995 ft | 379 kts | 295° |
| 2026-04-26 21:16 | 37.13273 | -120.59643 | 15987 ft | 380 kts | 295° |
| 2026-04-26 21:16 | 37.14451 | -120.62607 | 15989 ft | 380 kts | 295° |
| 2026-04-26 21:17 | 37.15629 | -120.65573 | 15982 ft | 380 kts | 295° |
| 2026-04-26 21:17 | 37.16805 | -120.68537 | 15982 ft | 380 kts | 295° |
| 2026-04-26 21:17 | 37.17979 | -120.71501 | 15984 ft | 380 kts | 295° |
| 2026-04-26 21:17 | 37.19155 | -120.74471 | 15978 ft | 380 kts | 295° |
| 2026-04-26 21:18 | 37.20329 | -120.77438 | 15979 ft | 380 kts | 295° |
| 2026-04-26 21:18 | 37.21504 | -120.80410 | 15978 ft | 380 kts | 295° |
| 2026-04-26 21:18 | 37.22675 | -120.83376 | 15977 ft | 380 kts | 295° |
| 2026-04-26 21:18 | 37.23847 | -120.86347 | 15976 ft | 380 kts | 295° |
| 2026-04-26 21:19 | 37.25015 | -120.89314 | 15987 ft | 380 kts | 295° |
| 2026-04-26 21:19 | 37.26186 | -120.92292 | 15986 ft | 381 kts | 295° |
| 2026-04-26 21:19 | 37.27359 | -120.95273 | 15978 ft | 381 kts | 295° |
| 2026-04-26 21:19 | 37.28531 | -120.98254 | 15973 ft | 380 kts | 295° |
| 2026-04-26 21:20 | 37.29700 | -121.01231 | 15974 ft | 380 kts | 295° |
| 2026-04-26 21:20 | 37.30866 | -121.04204 | 15975 ft | 379 kts | 295° |
| 2026-04-26 21:20 | 37.32031 | -121.07178 | 15975 ft | 379 kts | 295° |
| 2026-04-26 21:20 | 37.33193 | -121.10145 | 15929 ft | 377 kts | 295° |
| 2026-04-26 21:21 | 37.34347 | -121.13095 | 15473 ft | 375 kts | 295° |
| 2026-04-26 21:21 | 37.35495 | -121.16034 | 14898 ft | 374 kts | 295° |
| 2026-04-26 21:21 | 37.36638 | -121.18961 | 14251 ft | 373 kts | 295° |
| 2026-04-26 21:21 | 37.37777 | -121.21884 | 13638 ft | 371 kts | 295° |
| 2026-04-26 21:22 | 37.38900 | -121.24764 | 13226 ft | 362 kts | 295° |
| 2026-04-26 21:22 | 37.39996 | -121.27577 | 12809 ft | 355 kts | 295° |
| 2026-04-26 21:22 | 37.41054 | -121.30299 | 12414 ft | 348 kts | 295° |
| 2026-04-26 21:23 | 37.43158 | -121.35720 | 11647 ft | 342 kts | 295° |
| 2026-04-26 21:23 | 37.44211 | -121.38435 | 11268 ft | 339 kts | 295° |
| 2026-04-26 21:23 | 37.45224 | -121.41045 | 10958 ft | 332 kts | 295° |
| 2026-04-26 21:23 | 37.46224 | -121.43625 | 10677 ft | 324 kts | 295° |
| 2026-04-26 21:24 | 37.47196 | -121.46138 | 10540 ft | 313 kts | 295° |
| 2026-04-26 21:24 | 37.48128 | -121.48547 | 10464 ft | 299 kts | 295° |
| 2026-04-26 21:24 | 37.49017 | -121.50848 | 10385 ft | 286 kts | 295° |
| 2026-04-26 21:24 | 37.49868 | -121.53056 | 10327 ft | 274 kts | 295° |
| 2026-04-26 21:25 | 37.50689 | -121.55184 | 10153 ft | 267 kts | 295° |
| 2026-04-26 21:25 | 37.51489 | -121.57252 | 10000 ft | 260 kts | 295° |
| 2026-04-26 21:25 | 37.52279 | -121.59296 | 9576 ft | 262 kts | 295° |
| 2026-04-26 21:25 | 37.53071 | -121.61367 | 9223 ft | 261 kts | 294° |
| 2026-04-26 21:26 | 37.53851 | -121.63401 | 8948 ft | 257 kts | 294° |
| 2026-04-26 21:26 | 37.54634 | -121.65441 | 8521 ft | 260 kts | 294° |
| 2026-04-26 21:26 | 37.55418 | -121.67476 | 8237 ft | 257 kts | 295° |
| 2026-04-26 21:26 | 37.56191 | -121.69472 | 7977 ft | 251 kts | 293° |
| 2026-04-26 21:27 | 37.56935 | -121.71422 | 7789 ft | 242 kts | 293° |
| 2026-04-26 21:27 | 37.57655 | -121.73302 | 7599 ft | 235 kts | 293° |
| 2026-04-26 21:27 | 37.58358 | -121.75137 | 7338 ft | 230 kts | 294° |
| 2026-04-26 21:27 | 37.59048 | -121.76947 | 6998 ft | 231 kts | 292° |
| 2026-04-26 21:28 | 37.59750 | -121.78774 | 6617 ft | 231 kts | 292° |
| 2026-04-26 21:28 | 37.60434 | -121.80589 | 6334 ft | 225 kts | 287° |
| 2026-04-26 21:28 | 37.60674 | -121.82444 | 6038 ft | 209 kts | 264° |
| 2026-04-26 21:28 | 37.60646 | -121.84287 | 5816 ft | 213 kts | 266° |
| 2026-04-26 21:29 | 37.60663 | -121.86186 | 5546 ft | 220 kts | 268° |
| 2026-04-26 21:29 | 37.60690 | -121.88122 | 5327 ft | 220 kts | 267° |
| 2026-04-26 21:29 | 37.60712 | -121.90036 | 5042 ft | 216 kts | 267° |
| 2026-04-26 21:29 | 37.60733 | -121.91906 | 4811 ft | 211 kts | 268° |
| 2026-04-26 21:30 | 37.60755 | -121.93770 | 4556 ft | 213 kts | 267° |
| 2026-04-26 21:30 | 37.60755 | -121.95628 | 4303 ft | 210 kts | 266° |
| 2026-04-26 21:30 | 37.60703 | -121.97448 | 4060 ft | 206 kts | 266° |
| 2026-04-26 21:30 | 37.60670 | -121.98646 | 3916 ft | 206 kts | 265° |
| 2026-04-26 21:31 | 37.60599 | -122.01046 | 3604 ft | 202 kts | 266° |
| 2026-04-26 21:31 | 37.60621 | -122.02788 | 3335 ft | 195 kts | 275° |
| 2026-04-26 21:31 | 37.60808 | -122.04445 | 3129 ft | 186 kts | 276° |
| 2026-04-26 21:31 | 37.60998 | -122.06021 | 2960 ft | 178 kts | 276° |
| 2026-04-26 21:32 | 37.61188 | -122.07535 | 2744 ft | 172 kts | 283° |
| 2026-04-26 21:32 | 37.61782 | -122.08833 | 2535 ft | 172 kts | 307° |
| 2026-04-26 21:32 | 37.62569 | -122.10027 | 2294 ft | 182 kts | 306° |
| 2026-04-26 21:32 | 37.63363 | -122.11243 | 2094 ft | 180 kts | 306° |
| 2026-04-26 21:33 | 37.64161 | -122.12445 | 1888 ft | 179 kts | 307° |
| 2026-04-26 21:33 | 37.64696 | -122.13247 | 1738 ft | 174 kts | 306° |
| 2026-04-26 21:33 | 37.65682 | -122.14722 | 1448 ft | 159 kts | 305° |
| 2026-04-26 21:33 | 37.66371 | -122.15757 | 1219 ft | 147 kts | 305° |
| 2026-04-26 21:34 | 37.66994 | -122.16695 | 1030 ft | 136 kts | 306° |
| 2026-04-26 21:34 | 37.67597 | -122.17598 | 823 ft | 135 kts | 306° |
| 2026-04-26 21:34 | 37.68003 | -122.18206 | 756 ft | 133 kts | 307° |
| 2026-04-26 21:34 | 37.68621 | -122.19111 | 568 ft | 141 kts | 302° |
| 2026-04-26 21:35 | 37.69248 | -122.20097 | 396 ft | 148 kts | 306° |
| 2026-04-26 21:35 | 37.69938 | -122.21093 | 171 ft | 152 kts | 303° |
| 2026-04-26 21:35 | 37.70576 | -122.22064 | 16 ft | 132 kts | 303° |
| 2026-04-26 21:35 | 37.71059 | -122.22797 | 10 ft | 62 kts | 309° |
| 2026-04-26 21:36 | 37.71265 | -122.23054 | 12 ft | 27 kts | 326° |
| 2026-04-26 21:36 | 37.71410 | -122.23139 | 9 ft | 16 kts | 349° |
| 2026-04-26 21:36 | 37.71499 | -122.23111 | 11 ft | 11 kts | 68° |
| 2026-04-26 21:36 | 37.71468 | -122.23024 | 14 ft | 11 kts | 128° |
| 2026-04-26 21:37 | 37.71417 | -122.22946 | 16 ft | 14 kts | 131° |
| 2026-04-26 21:37 | 37.71312 | -122.22792 | 15 ft | 27 kts | 129° |
| 2026-04-26 21:37 | 37.71207 | -122.22617 | 15 ft | 25 kts | 108° |
| 2026-04-26 21:37 | 37.71282 | -122.22435 | 15 ft | 25 kts | 46° |
| 2026-04-26 21:38 | 37.71338 | -122.22260 | 16 ft | 22 kts | 99° |
| 2026-04-26 21:38 | 37.71398 | -122.22098 | 17 ft | 21 kts | 47° |
| 2026-04-26 21:38 | 37.71494 | -122.21965 | 19 ft | 21 kts | 49° |
| 2026-04-26 21:38 | 37.71588 | -122.21827 | 23 ft | 21 kts | 48° |
| 2026-04-26 21:39 | 37.71685 | -122.21697 | 25 ft | 17 kts | 40° |
| 2026-04-26 21:39 | 37.71767 | -122.21716 | 22 ft | 11 kts | 304° |
| 2026-04-26 21:39 | 37.71791 | -122.21791 | 24 ft | 9 kts | 275° |
| 2026-04-26 21:39 | 37.71766 | -122.21840 | 23 ft | 6 kts | 192° |
| 2026-04-26 21:40 | 37.71730 | -122.21813 | 21 ft | 6 kts | 132° |
| 2026-04-26 21:40 | 37.71720 | -122.21797 | 22 ft | 0 kts | 129° |